createdAt,value
2023-04-22T00:00:20.900Z,5.07
2023-04-22T00:02:50.264Z,4.45
2023-04-22T00:05:20.524Z,4.95
2023-04-22T00:07:48.826Z,5.90
2023-04-22T00:10:16.793Z,3.92
2023-04-22T00:12:44.767Z,5.22
2023-04-22T00:15:14.269Z,4.50
2023-04-22T00:17:42.846Z,4.13
2023-04-22T00:20:13.233Z,3.60
2023-04-22T00:22:41.434Z,3.78
2023-04-22T00:25:10.188Z,3.97
2023-04-22T00:27:38.067Z,5.20
2023-04-22T00:30:08.395Z,4.75
2023-04-22T00:32:38.223Z,5.05
2023-04-22T00:35:06.934Z,3.70
2023-04-22T00:37:35.083Z,3.83
2023-04-22T00:40:03.613Z,3.40
2023-04-22T00:42:31.574Z,3.67
2023-04-22T00:45:01.045Z,2.63
2023-04-22T00:47:29.131Z,3.70
2023-04-22T00:49:58.521Z,3.30
2023-04-22T00:52:26.521Z,5.78
2023-04-22T00:54:54.661Z,3.72
2023-04-22T00:57:22.659Z,3.85
2023-04-22T00:59:50.783Z,3.63
2023-04-22T01:02:20.255Z,3.10
2023-04-22T01:04:48.376Z,2.85
2023-04-22T01:07:17.829Z,3.00
2023-04-22T01:09:45.808Z,2.60
2023-04-22T01:12:13.688Z,4.10
2023-04-22T01:14:41.737Z,3.40
2023-04-22T01:17:10.277Z,2.83
2023-04-22T01:19:38.643Z,5.20
2023-04-22T01:22:07.738Z,2.63
2023-04-22T01:24:37.154Z,2.50
2023-04-22T01:27:05.199Z,2.45
2023-04-22T01:29:33.319Z,2.33
2023-04-22T01:32:01.395Z,3.03
2023-04-22T01:34:29.411Z,2.60
2023-04-22T01:36:57.446Z,3.10
2023-04-22T01:39:25.510Z,2.25
2023-04-22T01:41:55.718Z,2.63
2023-04-22T01:44:23.715Z,2.13
2023-04-22T01:46:51.752Z,2.65
2023-04-22T01:49:19.769Z,1.63
2023-04-22T01:51:47.653Z,1.92
2023-04-22T01:54:16.131Z,1.88
2023-04-22T01:56:54.055Z,1.80
2023-04-22T01:59:23.531Z,2.67
2023-04-22T02:01:51.585Z,1.85
2023-04-22T02:04:19.605Z,2.47
2023-04-22T02:06:47.569Z,2.42
2023-04-22T02:09:15.713Z,2.78
2023-04-22T02:11:43.837Z,1.70
2023-04-22T02:14:11.780Z,2.15
2023-04-22T02:16:41.885Z,2.15
2023-04-22T02:19:10.051Z,2.53
2023-04-22T02:21:38.110Z,1.92
2023-04-22T02:24:06.614Z,1.45
2023-04-22T02:26:34.638Z,3.28
2023-04-22T02:29:02.934Z,1.63
2023-04-22T02:31:31.357Z,1.88
2023-04-22T02:34:00.704Z,1.70
2023-04-22T02:36:28.917Z,1.60
2023-04-22T02:38:56.988Z,1.77
2023-04-22T02:41:25.160Z,2.10
2023-04-22T02:43:53.169Z,1.73
2023-04-22T02:46:21.230Z,1.80
2023-04-22T02:48:49.810Z,1.98
2023-04-22T02:51:21.571Z,1.67
2023-04-22T02:53:49.562Z,1.73
2023-04-22T02:56:17.501Z,3.50
2023-04-22T02:58:45.446Z,1.38
2023-04-22T03:01:13.563Z,1.67
2023-04-22T03:03:41.915Z,2.03
2023-04-22T03:06:10.071Z,1.42
2023-04-22T03:08:39.539Z,1.73
2023-04-22T03:11:07.608Z,2.42
2023-04-22T03:13:35.585Z,2.10
2023-04-22T03:16:03.583Z,1.20
2023-04-22T03:18:31.689Z,1.60
2023-04-22T03:21:00.892Z,2.45
2023-04-22T03:23:28.861Z,1.45
2023-04-22T03:25:58.231Z,1.50
2023-04-22T03:28:26.114Z,1.23
2023-04-22T03:30:54.127Z,1.33
2023-04-22T03:33:22.581Z,2.38
2023-04-22T03:35:51.111Z,1.80
2023-04-22T03:38:19.090Z,1.60
2023-04-22T03:40:47.039Z,1.15
2023-04-22T03:43:16.398Z,1.55
2023-04-22T03:45:45.832Z,1.80
2023-04-22T03:48:13.896Z,1.92
2023-04-22T03:50:41.931Z,1.45
2023-04-22T03:53:10.041Z,1.13
2023-04-22T03:55:38.087Z,1.45
2023-04-22T03:58:05.977Z,1.58
2023-04-22T04:00:35.478Z,1.35
2023-04-22T04:03:03.543Z,2.08
2023-04-22T04:05:31.824Z,1.05
2023-04-22T04:07:59.854Z,1.13
2023-04-22T04:10:28.050Z,1.25
2023-04-22T04:12:56.393Z,1.63
2023-04-22T04:15:24.396Z,1.55
2023-04-22T04:17:53.817Z,1.00
2023-04-22T04:20:21.960Z,1.15
2023-04-22T04:22:50.052Z,1.15
2023-04-22T04:25:18.446Z,1.02
2023-04-22T04:27:46.547Z,1.35
2023-04-22T04:30:16.352Z,1.40
2023-04-22T04:32:45.711Z,1.20
2023-04-22T04:35:15.434Z,0.85
2023-04-22T04:37:44.257Z,1.70
2023-04-22T04:40:13.901Z,1.00
2023-04-22T04:42:42.475Z,1.92
2023-04-22T04:45:11.059Z,1.20
2023-04-22T04:47:39.173Z,1.20
2023-04-22T04:50:08.282Z,1.10
2023-04-22T04:52:37.765Z,1.45
2023-04-22T04:55:06.409Z,2.70
2023-04-22T04:57:35.294Z,0.85
2023-04-22T05:00:05.104Z,1.10
2023-04-22T05:02:33.121Z,1.30
2023-04-22T05:05:09.219Z,1.00
2023-04-22T05:07:38.589Z,1.10
2023-04-22T05:10:07.637Z,1.10
2023-04-22T05:12:35.777Z,1.00
2023-04-22T05:15:03.848Z,0.73
2023-04-22T05:17:31.843Z,0.77
2023-04-22T05:19:59.949Z,1.25
2023-04-22T05:22:28.078Z,0.73
2023-04-22T05:24:57.428Z,0.70
2023-04-22T05:27:25.473Z,1.15
2023-04-22T05:29:53.407Z,1.38
2023-04-22T05:32:21.715Z,1.25
2023-04-22T05:34:51.296Z,1.48
2023-04-22T05:37:19.368Z,1.10
2023-04-22T05:39:47.435Z,1.10
2023-04-22T05:42:16.849Z,2.05
2023-04-22T05:44:44.839Z,1.90
2023-04-22T05:47:12.801Z,1.52
2023-04-22T05:49:41.025Z,1.17
2023-04-22T05:52:09.328Z,0.80
2023-04-22T05:54:37.451Z,2.35
2023-04-22T05:57:05.469Z,1.40
2023-04-22T05:59:34.983Z,1.45
2023-04-22T06:02:03.211Z,1.33
2023-04-22T06:04:33.054Z,1.05
2023-04-22T06:07:02.865Z,1.20
2023-04-22T06:09:30.810Z,0.85
2023-04-22T06:11:58.878Z,1.13
2023-04-22T06:14:26.950Z,1.05
2023-04-22T06:16:57.961Z,1.00
2023-04-22T06:19:25.949Z,1.15
2023-04-22T06:21:53.913Z,1.20
2023-04-22T06:24:22.396Z,1.08
2023-04-22T06:26:55.701Z,1.02
2023-04-22T06:29:25.992Z,1.92
2023-04-22T06:31:57.726Z,1.00
2023-04-22T06:34:34.529Z,1.45
2023-04-22T06:37:02.466Z,2.08
2023-04-22T06:39:36.339Z,0.70
2023-04-22T06:42:06.944Z,1.00
2023-04-22T06:44:39.127Z,1.67
2023-04-22T06:47:09.766Z,1.90
2023-04-22T06:49:47.866Z,0.90
2023-04-22T06:52:24.323Z,1.10
2023-04-22T06:55:00.117Z,1.23
2023-04-22T06:57:29.536Z,1.25
2023-04-22T06:59:57.508Z,0.98
2023-04-22T07:02:25.689Z,3.25
2023-04-22T07:04:55.179Z,1.63
2023-04-22T07:07:23.297Z,1.05
2023-04-22T07:09:51.257Z,1.90
2023-04-22T07:12:19.328Z,1.00
2023-04-22T07:14:47.524Z,1.23
2023-04-22T07:17:15.693Z,1.70
2023-04-22T07:19:43.612Z,1.23
2023-04-22T07:22:13.022Z,1.60
2023-04-22T07:24:41.093Z,1.25
2023-04-22T07:27:08.973Z,1.58
2023-04-22T07:29:37.132Z,1.45
2023-04-22T07:32:05.372Z,1.40
2023-04-22T07:34:33.437Z,0.80
2023-04-22T07:37:01.620Z,2.30
2023-04-22T07:39:31.050Z,1.50
2023-04-22T07:41:59.090Z,1.90
2023-04-22T07:44:27.021Z,2.05
2023-04-22T07:46:55.565Z,1.75
2023-04-22T07:49:24.196Z,3.33
2023-04-22T07:51:52.346Z,1.70
2023-04-22T07:54:20.484Z,3.80
2023-04-22T07:56:49.944Z,1.55
2023-04-22T07:59:17.990Z,4.72
2023-04-22T08:01:47.189Z,0.60
2023-04-22T08:04:15.573Z,1.52
2023-04-22T08:06:43.942Z,1.63
2023-04-22T08:09:12.028Z,3.28
2023-04-22T08:11:40.046Z,0.80
2023-04-22T08:14:09.426Z,1.52
2023-04-22T08:16:37.486Z,1.48
2023-04-22T08:19:05.550Z,1.10
2023-04-22T08:21:33.484Z,1.83
2023-04-22T08:24:01.638Z,1.38
2023-04-22T08:26:29.565Z,3.30
2023-04-22T08:28:57.570Z,1.35
2023-04-22T08:31:27.103Z,2.85
2023-04-22T08:33:55.258Z,0.85
2023-04-22T08:36:25.955Z,1.98
2023-04-22T08:38:54.706Z,1.52
2023-04-22T08:41:24.539Z,1.40
2023-04-22T08:43:52.660Z,1.63
2023-04-22T08:46:21.133Z,1.92
2023-04-22T08:48:50.595Z,1.45
2023-04-22T08:51:18.867Z,2.40
2023-04-22T08:53:46.771Z,1.50
2023-04-22T08:56:14.854Z,1.02
2023-04-22T08:58:43.166Z,1.02
2023-04-22T09:01:11.164Z,1.50
2023-04-22T09:03:40.456Z,1.63
2023-04-22T09:06:10.004Z,1.02
2023-04-22T09:08:37.988Z,1.08
2023-04-22T09:11:06.371Z,2.47
2023-04-22T09:13:34.647Z,1.13
2023-04-22T09:16:02.818Z,0.90
2023-04-22T09:18:30.804Z,1.05
2023-04-22T09:20:58.833Z,0.98
2023-04-22T09:23:28.194Z,1.48
2023-04-22T09:25:58.217Z,5.03
2023-04-22T09:28:26.228Z,3.20
2023-04-22T09:30:54.262Z,4.65
2023-04-22T09:33:23.838Z,4.72
2023-04-22T09:35:51.760Z,2.08
2023-04-22T09:38:19.755Z,4.20
2023-04-22T09:40:49.258Z,2.30
2023-04-22T09:43:19.568Z,2.10
2023-04-22T09:45:47.604Z,2.05
2023-04-22T09:48:16.603Z,1.27
2023-04-22T09:50:46.482Z,2.75
2023-04-22T09:53:16.053Z,4.72
2023-04-22T09:55:45.665Z,2.22
2023-04-22T09:58:16.519Z,1.83
2023-04-22T10:00:45.720Z,1.80
2023-04-22T10:03:14.023Z,1.63
2023-04-22T10:05:42.638Z,3.00
2023-04-22T10:08:11.265Z,2.00
2023-04-22T10:10:39.960Z,2.40
2023-04-22T10:13:09.554Z,2.30
2023-04-22T10:15:40.688Z,2.15
2023-04-22T10:18:09.977Z,3.17
2023-04-22T10:20:38.480Z,1.75
2023-04-22T10:23:06.845Z,2.60
2023-04-22T10:25:34.806Z,1.88
2023-04-22T10:28:03.820Z,2.10
2023-04-22T10:30:32.460Z,2.47
2023-04-22T10:33:35.235Z,2.22
2023-04-22T10:36:18.449Z,2.65
2023-04-22T10:39:15.865Z,1.52
2023-04-22T10:41:46.918Z,1.27
2023-04-22T10:44:15.134Z,2.33
2023-04-22T10:47:01.782Z,1.85
2023-04-22T10:49:35.758Z,1.20
2023-04-22T10:52:08.829Z,1.50
2023-04-22T10:54:59.578Z,1.10
2023-04-22T10:57:38.299Z,0.60
2023-04-22T11:00:21.811Z,1.70
2023-04-22T11:02:53.319Z,0.85
2023-04-22T11:05:24.646Z,1.65
2023-04-22T11:07:56.219Z,1.10
2023-04-22T11:10:43.013Z,1.10
2023-04-22T11:13:13.943Z,1.58
2023-04-22T11:15:42.686Z,1.13
2023-04-22T11:18:19.289Z,1.05
2023-04-22T11:20:48.550Z,1.33
2023-04-22T11:23:21.378Z,1.05
2023-04-22T11:25:49.426Z,1.45
2023-04-22T11:28:18.954Z,1.33
2023-04-22T11:30:47.791Z,1.15
2023-04-22T11:33:16.138Z,2.75
2023-04-22T11:35:44.336Z,0.77
2023-04-22T11:38:12.374Z,0.60
2023-04-22T11:40:46.202Z,0.70
2023-04-22T11:43:15.192Z,0.95
2023-04-22T11:45:43.698Z,1.48
2023-04-22T11:48:12.327Z,0.80
2023-04-22T11:50:42.257Z,0.77
2023-04-22T11:53:15.112Z,1.20
2023-04-22T11:55:45.124Z,1.42
2023-04-22T11:58:14.667Z,0.82
2023-04-22T12:00:44.045Z,0.80
2023-04-22T12:03:15.608Z,0.57
2023-04-22T12:05:44.576Z,1.45
2023-04-22T12:08:13.605Z,0.75
2023-04-22T12:10:46.341Z,0.82
2023-04-22T12:13:21.154Z,0.60
2023-04-22T12:15:49.213Z,0.50
2023-04-22T12:18:17.141Z,0.60
2023-04-22T12:20:45.109Z,0.88
2023-04-22T12:23:14.659Z,0.47
2023-04-22T12:25:43.141Z,0.68
2023-04-22T12:28:13.537Z,0.47
2023-04-22T12:30:41.528Z,0.60
2023-04-22T12:33:10.252Z,0.77
2023-04-22T12:35:38.290Z,1.38
2023-04-22T12:38:06.296Z,0.70
2023-04-22T12:40:34.797Z,0.70
2023-04-22T12:43:06.163Z,1.02
2023-04-22T12:45:35.527Z,1.40
2023-04-22T12:48:03.620Z,0.93
2023-04-22T12:50:31.587Z,0.30
2023-04-22T12:52:59.638Z,0.70
2023-04-22T12:55:27.718Z,0.45
2023-04-22T12:57:55.754Z,0.30
2023-04-22T13:00:24.404Z,0.77
2023-04-22T13:02:53.893Z,0.55
2023-04-22T13:05:22.147Z,0.52
2023-04-22T13:07:56.450Z,0.52
2023-04-22T13:10:28.343Z,1.42
2023-04-22T13:13:06.052Z,0.32
2023-04-22T13:15:43.713Z,0.43
2023-04-22T13:18:13.156Z,0.35
2023-04-22T13:20:42.429Z,0.63
2023-04-22T13:23:10.731Z,0.63
2023-04-22T13:25:38.686Z,0.70
2023-04-22T13:28:07.001Z,0.50
2023-04-22T13:30:35.009Z,0.40
2023-04-22T13:33:03.405Z,1.00
2023-04-22T13:35:33.445Z,0.30
2023-04-22T13:38:01.440Z,0.73
2023-04-22T13:40:29.398Z,0.52
2023-04-22T13:42:57.428Z,0.50
2023-04-22T13:45:25.771Z,0.60
2023-04-22T13:47:54.484Z,0.70
2023-04-22T13:50:22.711Z,0.93
2023-04-22T13:53:12.140Z,0.55
2023-04-22T13:55:40.234Z,0.65
2023-04-22T13:58:08.404Z,0.75
2023-04-22T14:00:36.571Z,0.43
2023-04-22T14:03:04.575Z,0.50
2023-04-22T14:05:32.694Z,0.28
2023-04-22T14:08:02.146Z,0.57
2023-04-22T14:10:30.149Z,0.30
2023-04-22T14:12:58.436Z,0.38
2023-04-22T14:15:26.446Z,0.30
2023-04-22T14:17:54.835Z,0.52
2023-04-22T14:20:25.187Z,0.47
2023-04-22T14:22:53.223Z,0.50
2023-04-22T14:25:22.595Z,0.30
2023-04-22T14:27:50.574Z,0.43
2023-04-22T14:30:18.642Z,0.40
2023-04-22T14:32:46.654Z,0.30
2023-04-22T14:35:14.672Z,0.75
2023-04-22T14:37:45.133Z,0.50
2023-04-22T14:40:13.472Z,1.50
2023-04-22T14:42:42.860Z,0.50
2023-04-22T14:45:11.792Z,0.40
2023-04-22T14:47:39.783Z,0.30
2023-04-22T14:50:08.620Z,0.20
2023-04-22T14:52:36.679Z,1.45
2023-04-22T14:55:15.377Z,0.30
2023-04-22T14:57:50.977Z,0.43
2023-04-22T15:00:19.319Z,0.30
2023-04-22T15:02:47.592Z,0.30
2023-04-22T15:05:15.731Z,0.50
2023-04-22T15:07:43.808Z,0.35
2023-04-22T15:10:12.184Z,0.38
2023-04-22T15:12:40.347Z,0.40
2023-04-22T15:15:13.313Z,0.40
2023-04-22T15:17:41.515Z,0.60
2023-04-22T15:20:10.131Z,0.20
2023-04-22T15:22:40.885Z,0.30
2023-04-22T15:25:09.930Z,0.45
2023-04-22T15:27:38.292Z,0.30
2023-04-22T15:30:07.335Z,0.20
2023-04-22T15:32:39.077Z,0.40
2023-04-22T15:35:08.899Z,0.35
2023-04-22T15:37:37.133Z,0.30
2023-04-22T15:40:07.132Z,0.13
2023-04-22T15:42:35.107Z,0.20
2023-04-22T15:45:03.990Z,0.38
2023-04-22T15:47:32.415Z,0.30
2023-04-22T15:50:06.594Z,0.20
2023-04-22T15:52:34.813Z,0.22
2023-04-22T15:55:02.899Z,0.40
2023-04-22T15:57:34.757Z,0.30
2023-04-22T16:00:11.970Z,0.35
2023-04-22T16:02:41.718Z,0.65
2023-04-22T16:05:11.579Z,0.40
2023-04-22T16:07:40.256Z,0.30
2023-04-22T16:10:09.731Z,0.57
2023-04-22T16:12:37.640Z,0.40
2023-04-22T16:15:06.897Z,0.28
2023-04-22T16:17:34.894Z,0.20
2023-04-22T16:20:03.348Z,0.30
2023-04-22T16:22:32.711Z,0.38
2023-04-22T16:25:00.741Z,0.32
2023-04-22T16:27:28.800Z,0.28
2023-04-22T16:29:56.835Z,0.63
2023-04-22T16:32:24.856Z,0.38
2023-04-22T16:34:52.894Z,0.22
2023-04-22T16:37:20.839Z,0.65
2023-04-22T16:39:50.751Z,0.20
2023-04-22T16:42:18.791Z,0.32
2023-04-22T16:44:46.843Z,0.30
2023-04-22T16:47:14.817Z,0.35
2023-04-22T16:49:43.217Z,0.30
2023-04-22T16:52:11.473Z,0.32
2023-04-22T16:54:40.769Z,0.25
2023-04-22T16:57:10.610Z,0.38
2023-04-22T16:59:38.817Z,0.32
2023-04-22T17:02:07.071Z,0.30
2023-04-22T17:04:35.244Z,0.50
2023-04-22T17:07:03.282Z,1.02
2023-04-22T17:09:32.978Z,0.30
2023-04-22T17:12:01.609Z,0.25
2023-04-22T17:14:31.165Z,0.20
2023-04-22T17:16:59.202Z,0.73
2023-04-22T17:19:27.987Z,0.30
2023-04-22T17:21:55.992Z,0.20
2023-04-22T17:24:24.990Z,0.50
2023-04-22T17:26:53.096Z,0.93
2023-04-22T17:29:21.851Z,0.28
2023-04-22T17:31:51.583Z,0.50
2023-04-22T17:34:19.660Z,0.45
2023-04-22T17:36:47.784Z,1.40
2023-04-22T17:39:15.884Z,0.82
2023-04-22T17:41:44.225Z,0.63
2023-04-22T17:44:12.367Z,0.75
2023-04-22T17:46:41.660Z,0.68
2023-04-22T17:49:11.230Z,0.80
2023-04-22T17:51:39.221Z,1.58
2023-04-22T17:54:07.671Z,0.60
2023-04-22T17:56:35.749Z,1.60
2023-04-22T17:59:03.768Z,2.30
2023-04-22T18:01:31.831Z,3.83
2023-04-22T18:04:00.146Z,0.80
2023-04-22T18:06:29.898Z,0.77
2023-04-22T18:08:57.957Z,0.60
2023-04-22T18:11:27.962Z,0.75
2023-04-22T18:13:56.120Z,0.40
2023-04-22T18:16:24.186Z,1.30
2023-04-22T18:18:52.214Z,1.02
2023-04-22T18:21:20.475Z,0.73
2023-04-22T18:23:49.822Z,3.50
2023-04-22T18:26:17.861Z,0.60
2023-04-22T18:28:45.858Z,0.80
2023-04-22T18:31:13.844Z,1.50
2023-04-22T18:33:41.936Z,0.80
2023-04-22T18:36:10.286Z,0.90
2023-04-22T18:38:39.574Z,0.77
2023-04-22T18:41:10.933Z,0.30
2023-04-22T18:43:38.929Z,0.43
2023-04-22T18:46:07.297Z,0.98
2023-04-22T18:48:35.361Z,0.63
2023-04-22T18:51:03.455Z,2.47
2023-04-22T18:53:31.499Z,0.85
2023-04-22T18:55:59.451Z,0.60
2023-04-22T18:58:28.859Z,1.05
2023-04-22T19:00:57.145Z,0.73
2023-04-22T19:03:25.467Z,0.85
2023-04-22T19:05:53.618Z,1.45
2023-04-22T19:08:21.665Z,1.40
2023-04-22T19:10:50.800Z,1.13
2023-04-22T19:13:29.336Z,1.50
2023-04-22T19:15:59.973Z,2.30
2023-04-22T19:18:28.137Z,1.10
2023-04-22T19:20:56.328Z,1.35
2023-04-22T19:23:24.326Z,2.80
2023-04-22T19:25:53.258Z,1.23
2023-04-22T19:28:21.315Z,2.20
2023-04-22T19:30:49.445Z,2.10
2023-04-22T19:33:18.865Z,1.95
2023-04-22T19:35:46.939Z,1.25
2023-04-22T19:38:19.067Z,1.85
2023-04-22T19:40:47.406Z,1.23
2023-04-22T19:43:17.159Z,1.50
2023-04-22T19:45:45.547Z,2.13
2023-04-22T19:48:14.158Z,1.52
2023-04-22T19:50:44.267Z,1.13
2023-04-22T19:53:12.412Z,2.25
2023-04-22T19:55:40.868Z,1.95
2023-04-22T19:58:09.395Z,1.65
2023-04-22T20:00:37.696Z,1.60
2023-04-22T20:03:07.001Z,2.25
2023-04-22T20:05:35.892Z,1.70
2023-04-22T20:08:05.363Z,1.80
2023-04-22T20:10:33.383Z,1.35
2023-04-22T20:13:03.577Z,1.52
2023-04-22T20:15:32.526Z,1.98
2023-04-22T20:18:00.821Z,1.40
2023-04-22T20:20:29.493Z,1.77
2023-04-22T20:22:57.502Z,1.60
2023-04-22T20:25:28.810Z,1.52
2023-04-22T20:27:56.859Z,1.35
2023-04-22T20:30:25.053Z,1.65
2023-04-22T20:32:53.227Z,2.05
2023-04-22T20:35:21.827Z,1.55
2023-04-22T20:37:50.948Z,1.73
2023-04-22T20:40:19.134Z,1.42
2023-04-22T20:42:48.532Z,1.63
2023-04-22T20:45:17.992Z,2.17
2023-04-22T20:47:46.263Z,1.55
2023-04-22T20:50:14.816Z,1.83
2023-04-22T20:52:43.420Z,3.20
2023-04-22T20:55:14.646Z,1.60
2023-04-22T20:57:42.634Z,1.67
2023-04-22T21:00:13.109Z,1.52
2023-04-22T21:02:41.477Z,1.52
2023-04-22T21:05:11.262Z,2.33
2023-04-22T21:07:39.470Z,1.52
2023-04-22T21:10:08.861Z,1.17
2023-04-22T21:12:38.245Z,1.50
2023-04-22T21:15:07.642Z,1.80
2023-04-22T21:17:37.134Z,1.80
2023-04-22T21:20:06.477Z,1.33
2023-04-22T21:22:34.597Z,2.05
2023-04-22T21:25:02.743Z,2.28
2023-04-22T21:27:31.253Z,2.50
2023-04-22T21:29:59.365Z,1.75
2023-04-22T21:32:27.669Z,1.80
2023-04-22T21:34:57.900Z,1.20
2023-04-22T21:37:26.078Z,1.10
2023-04-22T21:39:54.049Z,1.20
2023-04-22T21:42:22.068Z,1.33
2023-04-22T21:44:50.040Z,1.10
2023-04-22T21:47:18.051Z,1.35
2023-04-22T21:49:47.129Z,1.52
2023-04-22T21:52:16.501Z,2.22
2023-04-22T21:54:44.462Z,1.42
2023-04-22T21:57:12.398Z,1.30
2023-04-22T21:59:40.467Z,1.70
2023-04-22T22:02:08.561Z,1.67
2023-04-22T22:04:36.847Z,1.40
2023-04-22T22:07:04.995Z,1.75
2023-04-22T22:09:34.441Z,1.40
2023-04-22T22:12:02.990Z,1.00
2023-04-22T22:14:31.051Z,1.35
2023-04-22T22:16:59.149Z,1.83
2023-04-22T22:19:28.477Z,1.45
2023-04-22T22:21:56.454Z,1.13
2023-04-22T22:24:25.066Z,1.23
2023-04-22T22:26:54.518Z,0.98
2023-04-22T22:29:22.520Z,1.75
2023-04-22T22:31:50.562Z,1.42
2023-04-22T22:34:18.636Z,2.72
2023-04-22T22:36:46.635Z,3.75
2023-04-22T22:39:16.263Z,3.22
2023-04-22T22:41:44.312Z,2.88
2023-04-22T22:44:13.634Z,2.83
2023-04-22T22:46:41.693Z,1.75
2023-04-22T22:49:09.804Z,2.75
2023-04-22T22:51:39.957Z,2.17
2023-04-22T22:54:10.960Z,4.05
2023-04-22T22:56:48.425Z,4.88
2023-04-22T22:59:21.155Z,1.90
2023-04-22T23:01:50.551Z,2.75
2023-04-22T23:04:18.792Z,4.55
2023-04-22T23:06:47.211Z,4.60
2023-04-22T23:09:18.964Z,1.48
2023-04-22T23:11:48.441Z,2.97
2023-04-22T23:14:17.954Z,2.83
2023-04-22T23:16:46.150Z,3.55
2023-04-22T23:19:14.481Z,4.30
2023-04-22T23:21:42.618Z,1.30
2023-04-22T23:24:11.124Z,2.95
2023-04-22T23:26:39.534Z,2.25
2023-04-22T23:29:07.624Z,1.65
2023-04-22T23:31:37.438Z,3.38
2023-04-22T23:34:06.225Z,1.20
2023-04-22T23:36:37.247Z,2.50
2023-04-22T23:39:05.908Z,3.20
2023-04-22T23:41:34.139Z,1.00
2023-04-22T23:44:02.258Z,1.50
2023-04-22T23:46:30.390Z,1.60
2023-04-22T23:49:01.470Z,1.23
2023-04-22T23:51:29.905Z,2.25
2023-04-22T23:53:57.924Z,1.83
2023-04-22T23:56:26.773Z,1.77
2023-04-22T23:58:55.498Z,1.88
